Time;durP1;ratioP1;P1;durP2;ratioP2;P2;SDS_P1;SDS_P2;PMS_P1;PMS_P2;Temp;Humidity;BMP_temperature;BMP_pressure;BME280_temperature;BME280_humidity;BME280_pressure;Samples;Min_cycle;Max_cycle;Signal;HPM_P1;HPM_P2
2024/02/19 00:02:24;;;;;;;11.07;7.75;;;1.90;99.90;;;;;;5108331;28;20055;-58
2024/02/19 00:04:51;;;;;;;13.82;7.43;;;2.00;99.90;;;;;;5091313;28;20035;-59
2024/02/19 00:07:18;;;;;;;10.70;7.15;;;2.00;99.90;;;;;;5108384;28;20057;-58
2024/02/19 00:09:45;;;;;;;12.25;7.70;;;2.00;99.90;;;;;;5110801;28;20101;-58
2024/02/19 00:12:12;;;;;;;12.65;7.38;;;2.00;99.90;;;;;;5111631;28;20052;-58
2024/02/19 00:14:39;;;;;;;14.77;8.55;;;2.00;99.90;;;;;;5111756;28;20520;-57
2024/02/19 00:17:08;;;;;;;11.10;8.45;;;2.00;99.90;;;;;;5110768;28;20364;-58
2024/02/19 00:19:37;;;;;;;11.90;9.13;;;2.00;99.90;;;;;;5110168;28;20059;-58
2024/02/19 00:22:06;;;;;;;12.43;8.95;;;2.10;99.90;;;;;;5111868;28;20054;-59
2024/02/19 00:24:34;;;;;;;14.82;9.05;;;2.10;99.90;;;;;;5109519;28;20039;-57
2024/02/19 00:27:02;;;;;;;14.95;10.70;;;2.10;99.90;;;;;;5110383;28;20564;-58
2024/02/19 00:29:29;;;;;;;15.38;10.88;;;2.20;99.90;;;;;;5110698;28;20047;-59
2024/02/19 00:31:55;;;;;;;16.20;10.05;;;2.20;99.90;;;;;;5106307;28;20039;-58
2024/02/19 00:34:22;;;;;;;14.07;9.15;;;2.20;99.90;;;;;;5109402;28;20092;-57
2024/02/19 00:36:50;;;;;;;13.88;10.15;;;2.20;99.90;;;;;;5109740;28;20123;-58
2024/02/19 00:39:17;;;;;;;16.38;10.07;;;2.20;99.90;;;;;;5110003;28;20035;-58
2024/02/19 00:41:44;;;;;;;12.52;9.63;;;2.20;99.90;;;;;;5109753;28;20100;-59
2024/02/19 00:44:12;;;;;;;12.45;8.32;;;2.20;99.90;;;;;;5110945;28;20043;-58
2024/02/19 00:46:39;;;;;;;15.20;8.55;;;2.20;99.90;;;;;;5111625;28;20440;-58
2024/02/19 00:49:05;;;;;;;12.95;9.27;;;2.20;99.90;;;;;;5110312;28;20048;-59
2024/02/19 00:51:36;;;;;;;15.55;9.55;;;2.20;99.90;;;;;;5110295;28;20077;-62
2024/02/19 00:54:03;;;;;;;15.07;9.93;;;2.20;99.90;;;;;;5107449;28;20046;-57
2024/02/19 00:56:29;;;;;;;13.02;9.32;;;2.20;99.90;;;;;;5110920;28;20059;-58
2024/02/19 00:58:56;;;;;;;14.25;9.82;;;2.20;99.90;;;;;;5110957;28;20050;-58
2024/02/19 01:01:23;;;;;;;13.25;9.38;;;2.20;99.90;;;;;;5110201;28;20387;-59
2024/02/19 01:03:51;;;;;;;13.75;9.68;;;2.20;99.90;;;;;;5110525;28;20726;-57
2024/02/19 01:06:18;;;;;;;12.02;9.80;;;2.20;99.90;;;;;;5108118;28;20071;-58
2024/02/19 01:08:45;;;;;;;12.23;10.40;;;2.20;99.90;;;;;;5108947;28;20094;-58
2024/02/19 01:11:12;;;;;;;14.77;9.98;;;2.20;99.90;;;;;;5109743;28;20047;-58
2024/02/19 01:13:39;;;;;;;15.05;10.50;;;2.20;99.90;;;;;;5108935;28;20039;-59
2024/02/19 01:16:08;;;;;;;12.88;9.80;;;2.20;99.90;;;;;;5110574;28;20047;-59
2024/02/19 01:18:35;;;;;;;14.63;10.40;;;2.20;99.90;;;;;;5105165;28;20044;-58
2024/02/19 01:21:03;;;;;;;13.75;10.23;;;2.20;99.90;;;;;;5108613;28;20043;-59
2024/02/19 01:23:32;;;;;;;16.95;11.40;;;2.20;99.90;;;;;;5110526;28;20077;-59
2024/02/19 01:25:59;;;;;;;14.70;9.77;;;2.30;99.90;;;;;;5102084;28;20035;-59
2024/02/19 01:28:26;;;;;;;15.63;9.20;;;2.30;99.90;;;;;;5091675;28;20413;-59
2024/02/19 01:30:53;;;;;;;14.82;9.77;;;2.30;99.90;;;;;;5107635;28;20047;-58
2024/02/19 01:33:21;;;;;;;12.75;8.65;;;2.30;99.90;;;;;;5106612;28;20048;-58
2024/02/19 01:35:48;;;;;;;15.77;10.48;;;2.30;99.90;;;;;;5105779;28;20472;-58
2024/02/19 01:38:16;;;;;;;16.05;9.98;;;2.30;99.90;;;;;;5104092;28;20123;-58
2024/02/19 01:40:43;;;;;;;14.82;10.50;;;2.30;99.90;;;;;;5106617;28;20101;-61
2024/02/19 01:43:11;;;;;;;14.13;9.52;;;2.30;99.90;;;;;;5104511;28;20083;-58
2024/02/19 01:45:39;;;;;;;14.60;10.82;;;2.30;99.90;;;;;;5109157;28;20040;-58
2024/02/19 01:48:07;;;;;;;19.30;11.50;;;2.40;99.90;;;;;;5106471;28;20047;-61
2024/02/19 01:50:36;;;;;;;14.88;11.00;;;2.30;99.90;;;;;;5106492;28;20035;-57
2024/02/19 01:53:09;;;;;;;12.23;9.68;;;2.40;99.90;;;;;;5107551;28;20047;-58
2024/02/19 01:55:37;;;;;;;13.13;9.82;;;2.40;99.90;;;;;;5106523;28;20044;-59
2024/02/19 01:58:07;;;;;;;19.50;11.23;;;2.30;99.90;;;;;;5109754;28;20050;-58
2024/02/19 02:00:43;;;;;;;15.65;11.25;;;2.30;99.90;;;;;;5089285;28;20104;-59
2024/02/19 02:03:11;;;;;;;14.63;11.30;;;2.30;99.90;;;;;;5104065;28;20156;-57
2024/02/19 02:05:38;;;;;;;19.65;12.55;;;2.30;99.90;;;;;;5108785;28;20046;-58
2024/02/19 02:08:05;;;;;;;22.77;10.65;;;2.30;99.90;;;;;;5106659;28;20383;-57
2024/02/19 02:10:32;;;;;;;13.88;9.77;;;2.40;99.90;;;;;;5101105;28;20031;-58
2024/02/19 02:12:59;;;;;;;15.30;10.70;;;2.40;99.90;;;;;;5109416;28;20130;-58
2024/02/19 02:15:26;;;;;;;16.75;10.95;;;2.30;99.90;;;;;;5106732;28;20142;-58
2024/02/19 02:17:53;;;;;;;17.02;11.13;;;2.30;99.90;;;;;;5086676;28;20043;-58
2024/02/19 02:20:20;;;;;;;16.15;11.55;;;2.30;99.90;;;;;;5109645;28;20130;-58
2024/02/19 02:22:51;;;;;;;22.60;11.25;;;2.30;99.90;;;;;;5108601;28;20359;-57
2024/02/19 02:25:18;;;;;;;18.00;10.65;;;2.20;99.90;;;;;;5105593;28;20042;-58
2024/02/19 02:27:46;;;;;;;15.23;11.80;;;2.30;99.90;;;;;;5104637;28;20036;-58
2024/02/19 02:30:13;;;;;;;18.40;12.00;;;2.30;99.90;;;;;;5103592;28;20047;-58
2024/02/19 02:32:40;;;;;;;15.70;11.20;;;2.20;99.90;;;;;;5104182;28;20410;-58
2024/02/19 02:35:07;;;;;;;15.93;11.20;;;2.20;99.90;;;;;;5108945;28;20051;-58
2024/02/19 02:37:34;;;;;;;18.25;12.52;;;2.20;99.90;;;;;;5108918;28;20146;-58
2024/02/19 02:40:01;;;;;;;19.95;11.70;;;2.20;99.90;;;;;;5108635;28;20059;-59
2024/02/19 02:42:28;;;;;;;22.33;13.10;;;2.20;99.90;;;;;;5106970;28;20044;-60
2024/02/19 02:44:55;;;;;;;19.27;13.00;;;2.20;99.90;;;;;;5108618;28;20039;-57
2024/02/19 02:47:22;;;;;;;17.77;12.18;;;2.10;99.90;;;;;;5104573;28;20075;-58
2024/02/19 02:49:49;;;;;;;19.50;14.02;;;2.20;99.90;;;;;;5108875;28;20044;-57
2024/02/19 02:52:16;;;;;;;14.93;11.18;;;2.10;99.90;;;;;;5105900;28;20039;-58
2024/02/19 02:54:43;;;;;;;21.45;12.95;;;2.10;99.90;;;;;;5103336;28;20066;-59
2024/02/19 02:57:10;;;;;;;22.15;15.00;;;2.10;99.90;;;;;;5089003;28;20048;-59
2024/02/19 02:59:37;;;;;;;22.88;13.98;;;2.10;99.90;;;;;;5101388;28;20101;-59
2024/02/19 03:02:04;;;;;;;17.75;13.52;;;2.10;99.90;;;;;;5106688;28;20051;-58
2024/02/19 03:04:32;;;;;;;18.58;14.48;;;2.00;99.90;;;;;;5105622;28;20051;-58
2024/02/19 03:06:59;;;;;;;17.45;12.68;;;2.00;99.90;;;;;;5102994;28;20052;-58
2024/02/19 03:09:26;;;;;;;15.27;13.50;;;2.00;99.90;;;;;;5106719;28;20050;-65
2024/02/19 03:11:53;;;;;;;18.63;14.45;;;2.00;99.90;;;;;;5106634;28;20035;-58
2024/02/19 03:14:20;;;;;;;23.73;15.73;;;2.00;99.90;;;;;;5109047;28;20044;-57
2024/02/19 03:16:47;;;;;;;21.80;13.80;;;2.00;99.90;;;;;;5105296;28;20056;-58
2024/02/19 03:19:14;;;;;;;20.30;14.13;;;2.00;99.90;;;;;;5103391;28;20047;-58
2024/02/19 03:21:41;;;;;;;18.60;14.02;;;1.90;99.90;;;;;;5107130;28;20047;-58
2024/02/19 03:24:09;;;;;;;21.85;15.63;;;1.90;99.90;;;;;;5108226;28;20031;-58
2024/02/19 03:26:36;;;;;;;22.55;17.52;;;1.90;99.90;;;;;;5105790;28;20055;-58
2024/02/19 03:29:12;;;;;;;24.55;16.17;;;1.90;99.90;;;;;;5106634;28;20126;-59
2024/02/19 03:31:42;;;;;;;23.38;15.98;;;1.90;99.90;;;;;;5105125;28;20411;-57
2024/02/19 03:34:08;;;;;;;21.42;14.75;;;1.90;99.90;;;;;;5107194;28;20051;-59
2024/02/19 03:36:36;;;;;;;25.15;17.50;;;1.90;99.90;;;;;;5103454;28;20521;-59
2024/02/19 03:39:04;;;;;;;24.70;17.38;;;1.80;99.90;;;;;;5108488;28;20468;-58
2024/02/19 03:41:31;;;;;;;25.23;16.25;;;1.90;99.90;;;;;;5108956;28;20043;-61
2024/02/19 03:43:59;;;;;;;23.13;15.90;;;1.90;99.90;;;;;;5112525;28;20044;-59
2024/02/19 03:46:26;;;;;;;23.45;15.50;;;1.80;99.90;;;;;;5112150;28;20074;-59
2024/02/19 03:48:54;;;;;;;25.50;16.88;;;1.80;99.90;;;;;;5107304;28;20449;-58
2024/02/19 03:51:23;;;;;;;20.67;14.93;;;1.80;99.90;;;;;;5108928;28;20058;-58
2024/02/19 03:53:50;;;;;;;21.23;15.15;;;1.80;99.90;;;;;;5107259;28;20036;-58
2024/02/19 03:56:20;;;;;;;23.00;15.88;;;1.80;99.90;;;;;;5106873;28;20044;-58
2024/02/19 03:58:47;;;;;;;22.77;16.83;;;1.70;99.90;;;;;;5107483;28;20052;-57
2024/02/19 04:01:14;;;;;;;20.40;15.05;;;1.70;99.90;;;;;;5108679;28;20567;-57
2024/02/19 04:03:41;;;;;;;26.90;16.58;;;1.70;99.90;;;;;;5107226;28;20040;-58
2024/02/19 04:06:08;;;;;;;23.27;17.17;;;1.70;99.90;;;;;;5109447;28;20040;-58
2024/02/19 04:08:35;;;;;;;22.30;16.27;;;1.60;99.90;;;;;;5104536;28;20067;-58
2024/02/19 04:11:02;;;;;;;24.88;16.98;;;1.60;99.90;;;;;;5110547;28;20048;-58
2024/02/19 04:13:29;;;;;;;22.77;15.77;;;1.60;99.90;;;;;;5109579;28;20031;-58
2024/02/19 04:15:56;;;;;;;27.20;18.95;;;1.60;99.90;;;;;;5112477;28;20039;-61
2024/02/19 04:18:23;;;;;;;27.98;16.52;;;1.60;99.90;;;;;;5110533;28;20047;-61
2024/02/19 04:20:50;;;;;;;27.48;17.42;;;1.60;99.90;;;;;;5107551;28;20132;-60
2024/02/19 04:23:17;;;;;;;26.73;18.98;;;1.60;99.90;;;;;;5108275;28;20051;-61
2024/02/19 04:25:44;;;;;;;21.70;15.50;;;1.60;99.90;;;;;;5111893;28;20035;-61
2024/02/19 04:28:12;;;;;;;24.30;17.52;;;1.60;99.90;;;;;;5110803;28;20047;-60
2024/02/19 04:30:39;;;;;;;23.63;16.75;;;1.50;99.90;;;;;;5107102;28;20105;-60
2024/02/19 04:33:06;;;;;;;23.80;16.98;;;1.50;99.90;;;;;;5106021;28;20124;-60
2024/02/19 04:35:33;;;;;;;24.40;16.70;;;1.50;99.90;;;;;;5111412;28;20055;-60
2024/02/19 04:38:00;;;;;;;21.70;16.15;;;1.50;99.90;;;;;;5110075;28;20047;-60
2024/02/19 04:40:27;;;;;;;23.58;16.13;;;1.50;99.90;;;;;;5111333;28;20403;-60
2024/02/19 04:42:54;;;;;;;22.80;16.35;;;1.50;99.90;;;;;;5107922;28;20050;-62
2024/02/19 04:45:21;;;;;;;21.90;14.88;;;1.40;99.90;;;;;;5108813;28;20048;-61
2024/02/19 04:47:48;;;;;;;22.55;14.52;;;1.40;99.90;;;;;;5108614;28;20047;-61
2024/02/19 04:50:15;;;;;;;21.98;15.05;;;1.40;99.90;;;;;;5109778;28;20044;-61
2024/02/19 04:52:43;;;;;;;20.02;13.60;;;1.40;99.90;;;;;;5107563;28;20046;-60
2024/02/19 04:55:10;;;;;;;19.40;14.45;;;1.50;99.90;;;;;;5110743;28;20077;-60
2024/02/19 04:57:37;;;;;;;24.38;15.98;;;1.40;99.90;;;;;;5110744;28;20064;-61
2024/02/19 05:00:05;;;;;;;24.42;15.52;;;1.40;99.90;;;;;;5107667;28;20409;-61
2024/02/19 05:02:32;;;;;;;24.98;15.68;;;1.40;99.90;;;;;;5107480;28;20071;-60
2024/02/19 05:04:58;;;;;;;25.45;15.80;;;1.40;99.90;;;;;;5107602;28;20043;-60
2024/02/19 05:07:26;;;;;;;21.85;15.48;;;1.40;99.90;;;;;;5110794;28;20035;-61
2024/02/19 05:09:53;;;;;;;24.63;17.52;;;1.40;99.90;;;;;;5108817;28;20490;-60
2024/02/19 05:12:20;;;;;;;25.27;16.88;;;1.50;99.90;;;;;;5109689;28;20399;-61
2024/02/19 05:14:47;;;;;;;26.00;17.52;;;1.50;99.90;;;;;;5110911;28;20669;-59
2024/02/19 05:17:14;;;;;;;25.95;16.45;;;1.50;99.90;;;;;;5110603;28;20877;-60
2024/02/19 05:19:41;;;;;;;26.80;17.42;;;1.50;99.90;;;;;;5110637;28;20063;-61
2024/02/19 05:22:09;;;;;;;25.13;17.42;;;1.50;99.90;;;;;;5109816;28;20047;-61
2024/02/19 05:24:36;;;;;;;28.35;17.73;;;1.50;99.90;;;;;;5107499;28;20132;-61
2024/02/19 05:27:03;;;;;;;24.83;16.95;;;1.50;99.90;;;;;;5106028;28;20059;-61
2024/02/19 05:29:30;;;;;;;28.58;18.25;;;1.60;99.90;;;;;;5108605;28;20044;-62
2024/02/19 05:31:59;;;;;;;31.42;20.27;;;1.60;99.90;;;;;;5106788;28;20532;-60
2024/02/19 05:34:26;;;;;;;30.08;19.92;;;1.60;99.90;;;;;;5103040;28;20044;-62
2024/02/19 05:36:53;;;;;;;30.88;20.70;;;1.60;99.90;;;;;;5109563;28;20059;-63
2024/02/19 05:39:21;;;;;;;29.85;20.00;;;1.60;99.90;;;;;;5110103;28;20108;-60
2024/02/19 05:41:48;;;;;;;28.10;19.50;;;1.60;99.90;;;;;;5108850;28;20047;-60
2024/02/19 05:44:14;;;;;;;29.75;20.23;;;1.70;99.90;;;;;;5105162;28;20044;-60
2024/02/19 05:46:43;;;;;;;29.48;20.13;;;1.70;99.90;;;;;;5108206;28;20071;-60
2024/02/19 05:49:10;;;;;;;28.63;20.42;;;1.70;99.90;;;;;;5104005;28;20051;-61
2024/02/19 05:51:37;;;;;;;34.03;22.08;;;1.70;99.90;;;;;;5110066;28;20051;-61
2024/02/19 05:54:04;;;;;;;35.95;20.83;;;1.70;99.90;;;;;;5102614;28;20123;-61
2024/02/19 05:56:32;;;;;;;33.40;20.48;;;1.80;99.90;;;;;;5105126;28;20769;-61
2024/02/19 05:59:00;;;;;;;28.15;20.35;;;1.80;99.90;;;;;;5083834;28;20403;-61
2024/02/19 06:01:27;;;;;;;33.47;20.38;;;1.80;99.90;;;;;;5104564;28;20047;-61
2024/02/19 06:03:54;;;;;;;33.00;21.42;;;1.80;99.90;;;;;;5103966;28;20044;-60
2024/02/19 06:06:21;;;;;;;32.05;22.15;;;1.80;99.90;;;;;;5103144;28;20084;-60
2024/02/19 06:08:48;;;;;;;35.38;21.58;;;1.90;99.90;;;;;;5103483;28;20075;-60
2024/02/19 06:11:15;;;;;;;32.67;20.98;;;1.90;99.90;;;;;;5099979;28;20040;-60
2024/02/19 06:13:42;;;;;;;33.00;20.73;;;1.90;99.90;;;;;;5105908;28;20047;-61
2024/02/19 06:16:09;;;;;;;31.77;21.65;;;1.90;99.90;;;;;;5104411;28;20040;-60
2024/02/19 06:18:36;;;;;;;35.38;21.65;;;2.00;99.90;;;;;;5103206;28;20066;-60
2024/02/19 06:21:03;;;;;;;32.63;21.48;;;2.00;99.90;;;;;;5102624;28;20044;-60
2024/02/19 06:23:30;;;;;;;34.92;24.10;;;2.00;99.90;;;;;;5102754;28;20039;-64
2024/02/19 06:25:58;;;;;;;38.38;22.08;;;2.00;99.90;;;;;;5107891;28;20092;-61
2024/02/19 06:28:25;;;;;;;29.95;21.73;;;2.00;99.90;;;;;;5101073;28;20052;-61
2024/02/19 06:30:52;;;;;;;30.23;20.25;;;2.00;99.90;;;;;;5100764;28;20130;-61
2024/02/19 06:33:18;;;;;;;32.95;23.13;;;2.00;99.90;;;;;;5106336;28;20092;-58
2024/02/19 06:35:45;;;;;;;33.22;22.88;;;2.00;99.90;;;;;;5107475;28;20130;-58
2024/02/19 06:38:12;;;;;;;31.60;20.77;;;2.00;99.90;;;;;;5103760;28;20070;-58
2024/02/19 06:40:39;;;;;;;32.30;20.40;;;1.90;99.90;;;;;;5107166;28;20101;-58
2024/02/19 06:43:06;;;;;;;28.88;20.35;;;1.90;99.90;;;;;;5103673;28;20063;-60
2024/02/19 06:45:33;;;;;;;28.65;19.60;;;1.90;99.90;;;;;;5104514;28;20043;-61
2024/02/19 06:48:03;;;;;;;29.13;20.10;;;1.90;99.90;;;;;;5105864;28;20039;-60
2024/02/19 06:50:30;;;;;;;26.13;20.33;;;1.90;99.90;;;;;;5105908;28;20040;-61
2024/02/19 06:52:57;;;;;;;28.33;19.73;;;1.90;99.90;;;;;;5085820;28;20444;-61
2024/02/19 06:55:24;;;;;;;31.23;20.90;;;1.90;99.90;;;;;;5108570;28;20100;-62
2024/02/19 06:57:51;;;;;;;28.38;20.80;;;1.90;99.90;;;;;;5106149;28;20067;-61
2024/02/19 07:00:18;;;;;;;28.42;19.23;;;1.90;99.90;;;;;;5105076;28;20124;-60
2024/02/19 07:02:45;;;;;;;32.17;21.15;;;1.90;99.90;;;;;;5106519;28;20043;-60
2024/02/19 07:05:12;;;;;;;29.80;20.40;;;1.90;99.90;;;;;;5087858;28;20066;-61
2024/02/19 07:07:39;;;;;;;29.73;21.40;;;1.90;99.90;;;;;;5106424;28;20051;-60
2024/02/19 07:10:07;;;;;;;27.95;20.33;;;2.00;99.90;;;;;;5103353;28;20116;-62
2024/02/19 07:12:34;;;;;;;29.77;20.92;;;2.00;99.90;;;;;;5099508;28;20040;-61
2024/02/19 07:15:01;;;;;;;28.20;18.67;;;2.00;99.90;;;;;;5105002;28;20127;-60
2024/02/19 07:17:30;;;;;;;28.52;20.67;;;2.00;99.90;;;;;;5103082;28;20047;-63
2024/02/19 07:19:58;;;;;;;29.63;19.50;;;2.00;99.90;;;;;;5102660;28;20055;-61
2024/02/19 07:22:25;;;;;;;31.45;21.27;;;2.00;99.90;;;;;;5104302;28;20119;-61
2024/02/19 07:24:53;;;;;;;27.63;20.70;;;2.10;99.90;;;;;;5099963;28;20424;-61
2024/02/19 07:27:35;;;;;;;29.90;21.30;;;2.10;99.90;;;;;;5106557;28;20463;-60
2024/02/19 07:30:03;;;;;;;25.08;19.35;;;2.10;99.90;;;;;;5103606;28;20048;-64
2024/02/19 07:32:30;;;;;;;27.60;19.73;;;2.10;99.90;;;;;;5102489;28;20044;-62
2024/02/19 07:34:57;;;;;;;28.40;20.60;;;2.10;99.90;;;;;;5104199;28;20560;-62
2024/02/19 07:37:24;;;;;;;24.45;17.65;;;2.10;99.90;;;;;;5107880;28;20051;-64
2024/02/19 07:39:51;;;;;;;28.30;18.30;;;2.10;99.90;;;;;;5107299;28;20280;-60
2024/02/19 07:42:18;;;;;;;24.45;18.00;;;2.10;99.90;;;;;;5108249;28;20105;-60
2024/02/19 07:44:45;;;;;;;22.20;17.15;;;2.10;99.90;;;;;;5107160;28;20062;-61
2024/02/19 07:47:12;;;;;;;26.92;18.70;;;2.10;99.90;;;;;;5108211;28;20054;-61
2024/02/19 07:49:39;;;;;;;24.45;16.92;;;2.10;99.90;;;;;;5105634;28;20044;-60
2024/02/19 07:52:06;;;;;;;19.48;15.77;;;2.10;99.90;;;;;;5106036;28;20046;-61
2024/02/19 07:54:33;;;;;;;21.48;16.67;;;2.10;99.90;;;;;;5106474;28;20044;-63
2024/02/19 07:57:00;;;;;;;22.08;15.27;;;2.10;99.90;;;;;;5107881;28;20051;-60
2024/02/19 07:59:27;;;;;;;20.38;16.92;;;2.10;99.90;;;;;;5101196;28;20116;-62
2024/02/19 08:01:54;;;;;;;22.58;16.08;;;2.10;99.90;;;;;;5105939;28;20459;-63
2024/02/19 08:04:26;;;;;;;19.48;14.82;;;2.00;99.90;;;;;;5106766;28;20047;-62
2024/02/19 08:06:54;;;;;;;19.65;14.18;;;2.10;99.90;;;;;;5101893;28;20035;-61
2024/02/19 08:09:26;;;;;;;21.65;14.60;;;2.10;99.90;;;;;;5103495;28;20043;-60
2024/02/19 08:11:53;;;;;;;21.75;14.82;;;2.10;99.90;;;;;;5105504;28;20139;-60
2024/02/19 08:14:20;;;;;;;21.05;14.95;;;2.10;99.90;;;;;;5102446;28;20069;-61
2024/02/19 08:16:49;;;;;;;19.77;13.90;;;2.10;99.90;;;;;;5102924;28;20120;-60
2024/02/19 08:19:16;;;;;;;23.02;16.25;;;2.10;99.90;;;;;;5101731;28;20062;-61
2024/02/19 08:21:44;;;;;;;19.70;14.55;;;2.10;99.90;;;;;;5106493;28;20413;-61
2024/02/19 08:24:12;;;;;;;19.65;15.40;;;2.10;99.90;;;;;;5107274;28;20704;-60
2024/02/19 08:26:38;;;;;;;17.23;13.77;;;2.10;99.90;;;;;;5105398;28;20112;-65
2024/02/19 08:29:06;;;;;;;20.17;13.93;;;2.10;99.90;;;;;;5107322;28;20060;-61
2024/02/19 08:31:33;;;;;;;17.42;13.88;;;2.10;99.90;;;;;;5109559;28;20479;-61
2024/02/19 08:34:00;;;;;;;17.42;12.82;;;2.10;99.90;;;;;;5089087;28;20104;-60
2024/02/19 08:36:27;;;;;;;18.60;13.43;;;2.10;99.90;;;;;;5109733;28;20059;-62
2024/02/19 08:38:55;;;;;;;16.58;12.43;;;2.10;99.90;;;;;;5107190;28;20052;-61
2024/02/19 08:41:22;;;;;;;15.25;13.25;;;2.10;99.90;;;;;;5104943;28;20054;-61
2024/02/19 08:43:49;;;;;;;16.95;13.23;;;2.10;99.90;;;;;;5110509;28;20455;-61
2024/02/19 08:46:16;;;;;;;15.77;14.15;;;2.10;99.90;;;;;;5106633;28;20467;-61
2024/02/19 08:48:43;;;;;;;20.25;13.48;;;2.20;99.90;;;;;;5104670;28;20142;-61
2024/02/19 08:51:11;;;;;;;23.58;14.05;;;2.10;99.90;;;;;;5106881;28;20050;-62
2024/02/19 08:53:38;;;;;;;21.50;14.10;;;2.20;99.90;;;;;;5104559;28;20523;-62
2024/02/19 08:56:05;;;;;;;15.07;12.70;;;2.20;99.90;;;;;;5108818;28;20590;-60
2024/02/19 08:58:33;;;;;;;20.02;14.23;;;2.20;99.90;;;;;;5110982;28;20050;-62
2024/02/19 09:01:01;;;;;;;18.52;14.30;;;2.20;99.90;;;;;;5108238;28;20058;-61
2024/02/19 09:03:29;;;;;;;23.52;13.00;;;2.20;99.90;;;;;;5111065;28;20039;-60
2024/02/19 09:05:56;;;;;;;20.05;13.77;;;2.20;99.90;;;;;;5109528;28;20039;-61
2024/02/19 09:08:23;;;;;;;18.50;13.13;;;2.30;99.90;;;;;;5109480;28;20476;-62
2024/02/19 09:10:50;;;;;;;21.50;14.35;;;2.20;99.90;;;;;;5111680;28;20043;-61
2024/02/19 09:13:17;;;;;;;17.38;12.18;;;2.30;99.90;;;;;;5108008;28;20441;-61
2024/02/19 09:15:45;;;;;;;15.77;12.30;;;2.30;99.90;;;;;;5110150;28;20032;-60
2024/02/19 09:18:12;;;;;;;15.38;11.57;;;2.30;99.90;;;;;;5109163;28;20518;-61
2024/02/19 09:20:39;;;;;;;19.25;12.40;;;2.30;99.90;;;;;;5105865;28;20097;-61
2024/02/19 09:23:06;;;;;;;18.98;12.90;;;2.40;99.90;;;;;;5109945;28;20052;-61
2024/02/19 09:25:33;;;;;;;21.27;14.18;;;2.40;99.90;;;;;;5108995;28;20035;-61
2024/02/19 09:28:00;;;;;;;15.82;12.10;;;2.40;99.90;;;;;;5107981;28;20151;-61
2024/02/19 09:30:27;;;;;;;16.75;12.25;;;2.40;99.90;;;;;;5108757;28;20051;-61
2024/02/19 09:32:54;;;;;;;16.58;12.07;;;2.50;99.90;;;;;;5109299;28;20100;-61
2024/02/19 09:35:21;;;;;;;17.20;11.65;;;2.50;99.90;;;;;;5106438;28;20067;-61
2024/02/19 09:37:49;;;;;;;16.98;11.63;;;2.50;99.90;;;;;;5103956;28;20054;-63
2024/02/19 09:40:20;;;;;;;19.45;12.63;;;2.50;99.90;;;;;;5108849;28;20043;-61
2024/02/19 09:42:48;;;;;;;18.65;12.20;;;2.50;99.90;;;;;;5107690;28;20475;-60
2024/02/19 09:45:15;;;;;;;18.60;12.57;;;2.50;99.90;;;;;;5110655;28;20070;-60
2024/02/19 09:47:46;;;;;;;17.77;11.73;;;2.50;99.90;;;;;;5109930;28;20031;-61
2024/02/19 09:50:15;;;;;;;16.48;12.38;;;2.50;99.90;;;;;;5109830;28;20071;-61
2024/02/19 09:52:44;;;;;;;17.65;12.40;;;2.50;99.90;;;;;;5109340;28;20050;-62
2024/02/19 09:55:12;;;;;;;15.77;10.93;;;2.60;99.90;;;;;;5109565;28;20048;-61
2024/02/19 09:57:39;;;;;;;14.27;11.23;;;2.50;99.90;;;;;;5109926;28;20060;-60
2024/02/19 10:00:09;;;;;;;15.80;11.10;;;2.60;99.90;;;;;;5109426;28;20565;-61
2024/02/19 10:02:38;;;;;;;17.92;12.52;;;2.50;99.90;;;;;;5106503;28;20074;-61
2024/02/19 10:05:11;;;;;;;16.15;11.40;;;2.50;99.90;;;;;;5108962;28;20059;-61
2024/02/19 10:07:39;;;;;;;15.48;11.80;;;2.50;99.90;;;;;;5104393;28;20483;-61
2024/02/19 10:10:09;;;;;;;20.65;11.73;;;2.50;99.90;;;;;;5107254;28;20494;-61
2024/02/19 10:12:39;;;;;;;19.55;12.63;;;2.50;99.90;;;;;;5102798;28;20097;-58
2024/02/19 10:15:06;;;;;;;16.85;12.75;;;2.50;99.90;;;;;;5101494;28;20075;-58
2024/02/19 10:17:34;;;;;;;19.02;11.40;;;2.50;99.90;;;;;;5105248;28;20036;-59
2024/02/19 10:20:05;;;;;;;15.77;11.27;;;2.50;99.90;;;;;;5103208;28;20145;-58
2024/02/19 10:22:33;;;;;;;14.80;9.95;;;2.50;99.90;;;;;;5106416;28;20047;-61
2024/02/19 10:25:07;;;;;;;18.38;12.18;;;2.50;99.90;;;;;;5104454;28;20047;-59
2024/02/19 10:27:35;;;;;;;16.92;11.75;;;2.50;99.90;;;;;;5105709;28;20032;-61
2024/02/19 10:30:02;;;;;;;16.27;12.10;;;2.50;99.90;;;;;;5109224;28;20050;-61
2024/02/19 10:32:29;;;;;;;16.88;13.07;;;2.50;99.90;;;;;;5105784;28;20055;-63
2024/02/19 10:34:57;;;;;;;16.60;12.10;;;2.50;99.90;;;;;;5105328;28;20056;-61
2024/02/19 10:37:24;;;;;;;19.13;12.02;;;2.60;99.90;;;;;;5105713;28;20035;-62
2024/02/19 10:39:51;;;;;;;16.92;11.65;;;2.60;99.90;;;;;;5107596;28;20047;-61
2024/02/19 10:42:20;;;;;;;19.17;12.88;;;2.60;99.90;;;;;;5106536;28;20044;-61
2024/02/19 10:44:49;;;;;;;15.93;10.15;;;2.60;99.90;;;;;;5105612;28;20486;-60
2024/02/19 10:47:16;;;;;;;19.83;13.55;;;2.60;99.90;;;;;;5102644;28;20050;-60
2024/02/19 10:49:55;;;;;;;16.48;13.20;;;2.60;99.90;;;;;;5109734;28;20081;-62
2024/02/19 10:52:25;;;;;;;18.08;13.27;;;2.60;99.90;;;;;;5106769;28;20042;-60
2024/02/19 10:54:59;;;;;;;13.85;10.57;;;2.60;99.90;;;;;;5105780;28;20079;-61
2024/02/19 10:57:49;;;;;;;18.88;12.40;;;2.60;99.90;;;;;;5106528;28;20043;-61
2024/02/19 11:00:17;;;;;;;16.95;11.93;;;2.60;99.90;;;;;;5082777;28;20096;-62
2024/02/19 11:02:47;;;;;;;19.60;13.07;;;2.60;99.90;;;;;;5101480;28;20040;-60
2024/02/19 11:05:14;;;;;;;17.07;13.57;;;2.70;99.90;;;;;;5104541;28;20040;-61
2024/02/19 11:07:43;;;;;;;18.40;12.82;;;2.70;99.90;;;;;;5089240;28;20067;-63
2024/02/19 11:10:11;;;;;;;18.40;11.20;;;2.70;99.90;;;;;;5107264;28;20044;-60
2024/02/19 11:12:38;;;;;;;21.30;12.40;;;2.70;99.90;;;;;;5098506;28;20862;-61
2024/02/19 11:15:20;;;;;;;18.17;12.80;;;2.70;99.90;;;;;;5089260;28;20107;-60
2024/02/19 11:17:48;;;;;;;14.77;12.75;;;2.70;99.90;;;;;;5107840;28;20744;-61
2024/02/19 11:20:24;;;;;;;17.75;13.80;;;2.70;99.90;;;;;;5105532;28;20478;-65
2024/02/19 11:22:54;;;;;;;19.35;12.15;;;2.70;99.90;;;;;;5107257;28;20044;-60
2024/02/19 11:25:23;;;;;;;17.30;11.90;;;2.70;99.90;;;;;;5103652;28;20046;-61
2024/02/19 11:27:50;;;;;;;20.40;14.25;;;2.70;99.90;;;;;;5104054;28;20085;-61
2024/02/19 11:30:19;;;;;;;19.75;14.95;;;2.70;99.90;;;;;;5105585;28;20126;-61
2024/02/19 11:32:47;;;;;;;21.48;12.82;;;2.70;99.90;;;;;;5105635;28;20032;-60
2024/02/19 11:35:14;;;;;;;28.42;14.48;;;2.80;99.90;;;;;;5100064;28;20055;-61
2024/02/19 11:37:43;;;;;;;19.45;13.57;;;2.80;99.90;;;;;;5107563;28;20123;-61
2024/02/19 11:40:11;;;;;;;21.02;11.98;;;2.90;99.90;;;;;;5104375;28;20051;-61
2024/02/19 11:42:40;;;;;;;19.88;12.80;;;2.90;99.90;;;;;;5104518;28;20055;-61
2024/02/19 11:45:09;;;;;;;18.35;13.00;;;2.90;99.90;;;;;;5101155;28;20616;-61
2024/02/19 11:47:37;;;;;;;16.75;12.50;;;2.90;99.90;;;;;;5106823;28;20036;-64
2024/02/19 11:50:08;;;;;;;17.85;13.15;;;2.90;99.90;;;;;;5101366;28;20112;-60
2024/02/19 11:52:35;;;;;;;18.08;13.23;;;2.90;99.90;;;;;;5106997;28;20036;-61
2024/02/19 11:55:03;;;;;;;19.58;13.52;;;2.90;99.90;;;;;;5106181;28;20047;-62
2024/02/19 11:57:30;;;;;;;16.20;11.80;;;3.00;99.90;;;;;;5108523;28;20042;-63
2024/02/19 12:00:04;;;;;;;15.60;11.70;;;3.00;99.90;;;;;;5107832;28;20044;-61
2024/02/19 12:02:31;;;;;;;14.82;11.13;;;3.00;99.90;;;;;;5110903;28;20151;-60
2024/02/19 12:04:58;;;;;;;15.77;11.40;;;3.00;99.90;;;;;;5111811;28;20063;-61
2024/02/19 12:07:26;;;;;;;16.77;11.98;;;2.90;99.90;;;;;;5110536;28;20047;-61
2024/02/19 12:09:55;;;;;;;18.98;12.70;;;3.00;99.90;;;;;;5111281;28;20044;-61
2024/02/19 12:12:22;;;;;;;15.07;11.25;;;3.00;99.90;;;;;;5093951;28;20047;-60
2024/02/19 12:14:50;;;;;;;14.77;11.60;;;2.90;99.90;;;;;;5108872;28;20388;-61
2024/02/19 12:17:17;;;;;;;13.23;9.70;;;3.00;99.90;;;;;;5110023;28;20044;-63
2024/02/19 12:19:44;;;;;;;14.45;10.32;;;3.00;99.90;;;;;;5108534;28;20040;-61
2024/02/19 12:22:11;;;;;;;15.85;11.30;;;3.00;99.90;;;;;;5111989;28;20043;-61
2024/02/19 12:24:38;;;;;;;14.40;9.90;;;2.90;99.90;;;;;;5108960;28;20161;-60
2024/02/19 12:27:05;;;;;;;18.75;10.02;;;2.90;99.90;;;;;;5109080;28;20043;-60
2024/02/19 12:29:32;;;;;;;11.73;9.25;;;2.90;99.90;;;;;;5091623;28;20486;-62
2024/02/19 12:31:59;;;;;;;17.42;10.75;;;2.90;99.90;;;;;;5111411;28;20063;-61
2024/02/19 12:34:26;;;;;;;13.35;9.57;;;2.90;99.90;;;;;;5110786;28;20471;-61
2024/02/19 12:36:53;;;;;;;11.25;8.90;;;2.90;99.90;;;;;;5110067;28;20539;-62
2024/02/19 12:39:20;;;;;;;12.82;9.30;;;2.90;99.90;;;;;;5092793;28;20411;-60
2024/02/19 12:41:48;;;;;;;14.63;9.73;;;2.90;99.90;;;;;;5110762;28;20752;-61